sensor_id;sensor_type;location;lat;lon;timestamp;pressure;altitude;pressure_sealevel;temperature;humidity
73516;BME280;61763;51.416;5.442;2023-10-08T00:02:24;102198.88;;;15.62;100.00
73516;BME280;61763;51.416;5.442;2023-10-08T00:04:51;102198.94;;;15.61;100.00
73516;BME280;61763;51.416;5.442;2023-10-08T00:07:19;102204.59;;;15.56;100.00
73516;BME280;61763;51.416;5.442;2023-10-08T00:09:49;102207.47;;;15.53;100.00
73516;BME280;61763;51.416;5.442;2023-10-08T00:12:18;102209.78;;;15.43;100.00
73516;BME280;61763;51.416;5.442;2023-10-08T00:14:45;102195.66;;;15.54;100.00
73516;BME280;61763;51.416;5.442;2023-10-08T00:17:12;102211.44;;;15.46;100.00
73516;BME280;61763;51.416;5.442;2023-10-08T00:19:37;102217.28;;;15.38;100.00
73516;BME280;61763;51.416;5.442;2023-10-08T00:22:04;102219.84;;;15.22;100.00
73516;BME280;61763;51.416;5.442;2023-10-08T00:24:35;102214.34;;;15.04;100.00
73516;BME280;61763;51.416;5.442;2023-10-08T00:27:00;102217.66;;;14.92;100.00
73516;BME280;61763;51.416;5.442;2023-10-08T00:29:26;102208.69;;;14.90;100.00
73516;BME280;61763;51.416;5.442;2023-10-08T00:31:52;102225.56;;;14.78;100.00
73516;BME280;61763;51.416;5.442;2023-10-08T00:34:18;102215.03;;;14.70;100.00
73516;BME280;61763;51.416;5.442;2023-10-08T00:36:47;102215.41;;;14.62;100.00
73516;BME280;61763;51.416;5.442;2023-10-08T00:39:14;102223.66;;;14.59;100.00
73516;BME280;61763;51.416;5.442;2023-10-08T00:41:50;102226.78;;;14.50;100.00
73516;BME280;61763;51.416;5.442;2023-10-08T00:44:16;102228.28;;;14.36;100.00
73516;BME280;61763;51.416;5.442;2023-10-08T00:46:49;102231.34;;;14.29;100.00
73516;BME280;61763;51.416;5.442;2023-10-08T00:49:24;102229.75;;;14.23;100.00
73516;BME280;61763;51.416;5.442;2023-10-08T00:51:56;102220.94;;;14.18;100.00
73516;BME280;61763;51.416;5.442;2023-10-08T00:54:51;102233.09;;;14.09;100.00
73516;BME280;61763;51.416;5.442;2023-10-08T00:57:18;102232.97;;;14.12;100.00
73516;BME280;61763;51.416;5.442;2023-10-08T00:59:47;102238.81;;;14.01;100.00
73516;BME280;61763;51.416;5.442;2023-10-08T01:02:19;102250.44;;;14.05;100.00
73516;BME280;61763;51.416;5.442;2023-10-08T01:04:49;102234.69;;;13.93;100.00
73516;BME280;61763;51.416;5.442;2023-10-08T01:07:16;102240.88;;;13.96;100.00
73516;BME280;61763;51.416;5.442;2023-10-08T01:09:43;102244.84;;;13.88;100.00
73516;BME280;61763;51.416;5.442;2023-10-08T01:14:49;102226.06;;;13.83;100.00
73516;BME280;61763;51.416;5.442;2023-10-08T01:17:19;102217.53;;;13.70;100.00
73516;BME280;61763;51.416;5.442;2023-10-08T01:19:49;102213.44;;;13.60;100.00
73516;BME280;61763;51.416;5.442;2023-10-08T01:22:34;102204.81;;;13.50;100.00
73516;BME280;61763;51.416;5.442;2023-10-08T01:24:59;102211.50;;;13.41;100.00
73516;BME280;61763;51.416;5.442;2023-10-08T01:27:31;102216.72;;;13.46;100.00
73516;BME280;61763;51.416;5.442;2023-10-08T01:30:00;102216.72;;;13.46;100.00
73516;BME280;61763;51.416;5.442;2023-10-08T01:32:41;102221.19;;;13.47;100.00
73516;BME280;61763;51.416;5.442;2023-10-08T01:35:08;102210.59;;;13.41;100.00
73516;BME280;61763;51.416;5.442;2023-10-08T01:37:50;102219.00;;;13.35;100.00
73516;BME280;61763;51.416;5.442;2023-10-08T01:40:16;102207.28;;;13.34;100.00
73516;BME280;61763;51.416;5.442;2023-10-08T01:42:43;102204.50;;;13.36;100.00
73516;BME280;61763;51.416;5.442;2023-10-08T01:45:09;102206.31;;;13.35;100.00
73516;BME280;61763;51.416;5.442;2023-10-08T01:47:36;102206.16;;;13.38;100.00
73516;BME280;61763;51.416;5.442;2023-10-08T01:50:01;102200.03;;;13.33;100.00
73516;BME280;61763;51.416;5.442;2023-10-08T01:52:30;102198.00;;;13.40;100.00
73516;BME280;61763;51.416;5.442;2023-10-08T01:54:55;102199.63;;;13.44;100.00
73516;BME280;61763;51.416;5.442;2023-10-08T01:57:21;102204.97;;;13.45;100.00
73516;BME280;61763;51.416;5.442;2023-10-08T01:59:46;102213.19;;;13.44;100.00
73516;BME280;61763;51.416;5.442;2023-10-08T02:02:12;102219.31;;;13.49;100.00
73516;BME280;61763;51.416;5.442;2023-10-08T02:04:39;102196.72;;;13.48;100.00
73516;BME280;61763;51.416;5.442;2023-10-08T02:07:05;102207.69;;;13.45;100.00
73516;BME280;61763;51.416;5.442;2023-10-08T02:09:34;102221.19;;;13.47;100.00
73516;BME280;61763;51.416;5.442;2023-10-08T02:11:59;102226.75;;;13.44;100.00
73516;BME280;61763;51.416;5.442;2023-10-08T02:14:25;102233.06;;;13.44;100.00
73516;BME280;61763;51.416;5.442;2023-10-08T02:16:51;102235.91;;;13.41;100.00
73516;BME280;61763;51.416;5.442;2023-10-08T02:19:21;102222.44;;;13.38;100.00
73516;BME280;61763;51.416;5.442;2023-10-08T02:21:52;102238.72;;;13.38;100.00
73516;BME280;61763;51.416;5.442;2023-10-08T02:24:20;102229.75;;;13.36;100.00
73516;BME280;61763;51.416;5.442;2023-10-08T02:26:47;102231.59;;;13.36;100.00
73516;BME280;61763;51.416;5.442;2023-10-08T02:29:12;102225.16;;;13.38;100.00
73516;BME280;61763;51.416;5.442;2023-10-08T02:31:40;102229.38;;;13.45;100.00
73516;BME280;61763;51.416;5.442;2023-10-08T02:34:06;102230.28;;;13.46;100.00
73516;BME280;61763;51.416;5.442;2023-10-08T02:36:39;102218.53;;;13.45;100.00
73516;BME280;61763;51.416;5.442;2023-10-08T02:39:08;102227.59;;;13.46;100.00
73516;BME280;61763;51.416;5.442;2023-10-08T02:41:48;102233.00;;;13.46;100.00
73516;BME280;61763;51.416;5.442;2023-10-08T02:44:15;102232.94;;;13.47;100.00
73516;BME280;61763;51.416;5.442;2023-10-08T02:46:45;102231.81;;;13.53;100.00
73516;BME280;61763;51.416;5.442;2023-10-08T02:49:13;102230.09;;;13.51;100.00
73516;BME280;61763;51.416;5.442;2023-10-08T02:51:42;102233.63;;;13.53;100.00
73516;BME280;61763;51.416;5.442;2023-10-08T02:54:13;102250.09;;;13.48;100.00
73516;BME280;61763;51.416;5.442;2023-10-08T02:56:49;102250.16;;;13.46;100.00
73516;BME280;61763;51.416;5.442;2023-10-08T02:59:22;102247.56;;;13.43;100.00
73516;BME280;61763;51.416;5.442;2023-10-08T03:01:48;102246.69;;;13.43;100.00
73516;BME280;61763;51.416;5.442;2023-10-08T03:04:21;102249.53;;;13.40;100.00
73516;BME280;61763;51.416;5.442;2023-10-08T03:06:49;102247.88;;;13.36;100.00
73516;BME280;61763;51.416;5.442;2023-10-08T03:09:24;102247.97;;;13.32;100.00
73516;BME280;61763;51.416;5.442;2023-10-08T03:11:51;102248.09;;;13.29;100.00
73516;BME280;61763;51.416;5.442;2023-10-08T03:14:18;102253.53;;;13.28;100.00
73516;BME280;61763;51.416;5.442;2023-10-08T03:16:49;102250.09;;;13.24;100.00
73516;BME280;61763;51.416;5.442;2023-10-08T03:19:15;102252.84;;;13.23;100.00
73516;BME280;61763;51.416;5.442;2023-10-08T03:21:43;102249.28;;;13.22;100.00
73516;BME280;61763;51.416;5.442;2023-10-08T03:24:19;102263.75;;;13.21;100.00
73516;BME280;61763;51.416;5.442;2023-10-08T03:27:04;102267.34;;;13.22;100.00
73516;BME280;61763;51.416;5.442;2023-10-08T03:29:48;102274.53;;;13.23;100.00
73516;BME280;61763;51.416;5.442;2023-10-08T03:32:14;102273.66;;;13.22;100.00
73516;BME280;61763;51.416;5.442;2023-10-08T03:34:49;102274.59;;;13.21;100.00
73516;BME280;61763;51.416;5.442;2023-10-08T03:37:20;102280.84;;;13.23;100.00
73516;BME280;61763;51.416;5.442;2023-10-08T03:39:47;102284.44;;;13.24;100.00
73516;BME280;61763;51.416;5.442;2023-10-08T03:42:25;102276.31;;;13.24;100.00
73516;BME280;61763;51.416;5.442;2023-10-08T03:44:51;102283.50;;;13.25;100.00
73516;BME280;61763;51.416;5.442;2023-10-08T03:47:18;102279.91;;;13.24;100.00
73516;BME280;61763;51.416;5.442;2023-10-08T03:49:45;102281.69;;;13.25;100.00
73516;BME280;61763;51.416;5.442;2023-10-08T03:52:11;102289.88;;;13.24;100.00
73516;BME280;61763;51.416;5.442;2023-10-08T03:54:38;102290.75;;;13.24;100.00
73516;BME280;61763;51.416;5.442;2023-10-08T03:57:08;102283.28;;;13.31;100.00
73516;BME280;61763;51.416;5.442;2023-10-08T03:59:40;102285.84;;;13.36;100.00
73516;BME280;61763;51.416;5.442;2023-10-08T04:02:06;102279.53;;;13.33;100.00
73516;BME280;61763;51.416;5.442;2023-10-08T04:05:04;102277.84;;;13.31;100.00
73516;BME280;61763;51.416;5.442;2023-10-08T04:07:43;102268.81;;;13.30;100.00
73516;BME280;61763;51.416;5.442;2023-10-08T04:10:40;102271.41;;;13.33;100.00
73516;BME280;61763;51.416;5.442;2023-10-08T04:13:05;102261.66;;;13.29;100.00
73516;BME280;61763;51.416;5.442;2023-10-08T04:15:34;102255.03;;;13.37;100.00
73516;BME280;61763;51.416;5.442;2023-10-08T04:18:00;102251.69;;;13.30;100.00
73516;BME280;61763;51.416;5.442;2023-10-08T04:20:28;102263.31;;;13.32;100.00
73516;BME280;61763;51.416;5.442;2023-10-08T04:22:59;102288.78;;;13.28;100.00
73516;BME280;61763;51.416;5.442;2023-10-08T04:25:28;102282.69;;;13.23;100.00
73516;BME280;61763;51.416;5.442;2023-10-08T04:27:58;102277.25;;;13.23;100.00
73516;BME280;61763;51.416;5.442;2023-10-08T04:30:32;102257.53;;;13.19;100.00
73516;BME280;61763;51.416;5.442;2023-10-08T04:33:02;102260.13;;;13.22;100.00
73516;BME280;61763;51.416;5.442;2023-10-08T04:35:38;102278.25;;;13.20;100.00
73516;BME280;61763;51.416;5.442;2023-10-08T04:38:27;102286.69;;;13.12;100.00
73516;BME280;61763;51.416;5.442;2023-10-08T04:40:54;102287.91;;;13.04;100.00
73516;BME280;61763;51.416;5.442;2023-10-08T04:43:22;102295.34;;;12.99;100.00
73516;BME280;61763;51.416;5.442;2023-10-08T04:45:59;102290.19;;;12.91;100.00
73516;BME280;61763;51.416;5.442;2023-10-08T04:48:32;102289.56;;;12.84;100.00
73516;BME280;61763;51.416;5.442;2023-10-08T04:50:58;102285.34;;;12.75;100.00
73516;BME280;61763;51.416;5.442;2023-10-08T04:53:28;102295.56;;;12.67;100.00
73516;BME280;61763;51.416;5.442;2023-10-08T04:56:00;102297.63;;;12.60;100.00
73516;BME280;61763;51.416;5.442;2023-10-08T04:58:32;102297.88;;;12.53;100.00
73516;BME280;61763;51.416;5.442;2023-10-08T05:01:06;102317.09;;;12.45;100.00
73516;BME280;61763;51.416;5.442;2023-10-08T05:06:28;102309.31;;;12.36;100.00
73516;BME280;61763;51.416;5.442;2023-10-08T05:11:43;102304.06;;;12.31;100.00
73516;BME280;61763;51.416;5.442;2023-10-08T05:14:18;102307.59;;;12.33;100.00
73516;BME280;61763;51.416;5.442;2023-10-08T05:17:03;102311.97;;;12.37;100.00
73516;BME280;61763;51.416;5.442;2023-10-08T05:19:37;102319.09;;;12.40;100.00
73516;BME280;61763;51.416;5.442;2023-10-08T05:22:07;102318.16;;;12.41;100.00
73516;BME280;61763;51.416;5.442;2023-10-08T05:24:52;102316.34;;;12.41;100.00
73516;BME280;61763;51.416;5.442;2023-10-08T05:27:34;102329.88;;;12.41;100.00
73516;BME280;61763;51.416;5.442;2023-10-08T05:30:06;102326.22;;;12.42;100.00
73516;BME280;61763;51.416;5.442;2023-10-08T05:32:50;102331.75;;;12.39;100.00
73516;BME280;61763;51.416;5.442;2023-10-08T05:35:36;102339.88;;;12.39;100.00
73516;BME280;61763;51.416;5.442;2023-10-08T05:38:12;102334.34;;;12.42;100.00
73516;BME280;61763;51.416;5.442;2023-10-08T05:41:01;102337.72;;;12.49;100.00
73516;BME280;61763;51.416;5.442;2023-10-08T05:43:28;102338.56;;;12.51;100.00
73516;BME280;61763;51.416;5.442;2023-10-08T05:46:10;102350.28;;;12.52;100.00
73516;BME280;61763;51.416;5.442;2023-10-08T05:51:31;102371.16;;;12.48;100.00
73516;BME280;61763;51.416;5.442;2023-10-08T05:54:19;102372.94;;;12.49;100.00
73516;BME280;61763;51.416;5.442;2023-10-08T05:59:37;102369.34;;;12.49;100.00
73516;BME280;61763;51.416;5.442;2023-10-08T06:02:24;102352.03;;;12.53;100.00
73516;BME280;61763;51.416;5.442;2023-10-08T06:05:00;102338.41;;;12.56;100.00
73516;BME280;61763;51.416;5.442;2023-10-08T06:10:21;102330.03;;;12.64;100.00
73516;BME280;61763;51.416;5.442;2023-10-08T06:13:12;102331.81;;;12.63;100.00
73516;BME280;61763;51.416;5.442;2023-10-08T06:16:15;102326.47;;;12.61;100.00
73516;BME280;61763;51.416;5.442;2023-10-08T06:19:00;102312.78;;;12.66;100.00
73516;BME280;61763;51.416;5.442;2023-10-08T06:21:26;102331.63;;;12.69;100.00
73516;BME280;61763;51.416;5.442;2023-10-08T06:23:52;102318.69;;;12.77;100.00
73516;BME280;61763;51.416;5.442;2023-10-08T06:26:21;102298.91;;;12.75;100.00
73516;BME280;61763;51.416;5.442;2023-10-08T06:28:50;102309.28;;;12.88;100.00
73516;BME280;61763;51.416;5.442;2023-10-08T06:31:22;102312.97;;;12.85;100.00
73516;BME280;61763;51.416;5.442;2023-10-08T06:33:50;102331.06;;;12.85;100.00
73516;BME280;61763;51.416;5.442;2023-10-08T06:36:15;102333.72;;;12.86;100.00
73516;BME280;61763;51.416;5.442;2023-10-08T06:38:45;102334.63;;;12.87;100.00
73516;BME280;61763;51.416;5.442;2023-10-08T06:41:15;102337.34;;;12.87;100.00
73516;BME280;61763;51.416;5.442;2023-10-08T06:43:44;102339.94;;;12.90;100.00
73516;BME280;61763;51.416;5.442;2023-10-08T06:46:16;102349.91;;;12.88;100.00
73516;BME280;61763;51.416;5.442;2023-10-08T06:48:45;102352.63;;;12.88;100.00
73516;BME280;61763;51.416;5.442;2023-10-08T06:51:12;102345.47;;;12.85;100.00
73516;BME280;61763;51.416;5.442;2023-10-08T06:53:47;102341.91;;;12.85;100.00
73516;BME280;61763;51.416;5.442;2023-10-08T06:56:17;102340.03;;;12.87;100.00
73516;BME280;61763;51.416;5.442;2023-10-08T06:58:45;102341.84;;;12.86;100.00
73516;BME280;61763;51.416;5.442;2023-10-08T07:01:15;102353.53;;;12.88;100.00
73516;BME280;61763;51.416;5.442;2023-10-08T07:03:47;102350.75;;;12.90;100.00
73516;BME280;61763;51.416;5.442;2023-10-08T07:06:14;102354.28;;;12.92;100.00
73516;BME280;61763;51.416;5.442;2023-10-08T07:08:51;102350.66;;;12.93;100.00
73516;BME280;61763;51.416;5.442;2023-10-08T07:11:21;102358.44;;;13.02;100.00
73516;BME280;61763;51.416;5.442;2023-10-08T07:13:48;102357.09;;;13.14;100.00
73516;BME280;61763;51.416;5.442;2023-10-08T07:16:13;102358.34;;;13.29;100.00
73516;BME280;61763;51.416;5.442;2023-10-08T07:18:43;102358.69;;;13.45;100.00
73516;BME280;61763;51.416;5.442;2023-10-08T07:21:20;102358.19;;;13.57;100.00
73516;BME280;61763;51.416;5.442;2023-10-08T07:23:54;102355.78;;;13.73;100.00
73516;BME280;61763;51.416;5.442;2023-10-08T07:26:28;102363.19;;;13.92;100.00
73516;BME280;61763;51.416;5.442;2023-10-08T07:29:02;102358.84;;;14.10;100.00
73516;BME280;61763;51.416;5.442;2023-10-08T07:31:35;102362.00;;;14.21;100.00
73516;BME280;61763;51.416;5.442;2023-10-08T07:34:02;102368.28;;;14.44;100.00
73516;BME280;61763;51.416;5.442;2023-10-08T07:36:45;102373.66;;;14.67;100.00
73516;BME280;61763;51.416;5.442;2023-10-08T07:39:12;102377.34;;;14.87;100.00
73516;BME280;61763;51.416;5.442;2023-10-08T07:41:49;102371.91;;;15.07;100.00
73516;BME280;61763;51.416;5.442;2023-10-08T07:44:15;102381.47;;;15.16;100.00
73516;BME280;61763;51.416;5.442;2023-10-08T07:46:40;102385.13;;;15.36;100.00
73516;BME280;61763;51.416;5.442;2023-10-08T07:49:05;102384.31;;;15.53;100.00
73516;BME280;61763;51.416;5.442;2023-10-08T07:51:31;102376.25;;;15.70;100.00
73516;BME280;61763;51.416;5.442;2023-10-08T07:53:58;102382.97;;;15.82;100.00
73516;BME280;61763;51.416;5.442;2023-10-08T07:56:25;102387.84;;;15.94;100.00
73516;BME280;61763;51.416;5.442;2023-10-08T07:58:55;102375.56;;;16.05;100.00
73516;BME280;61763;51.416;5.442;2023-10-08T08:01:22;102379.72;;;16.12;100.00
73516;BME280;61763;51.416;5.442;2023-10-08T08:03:50;102377.88;;;16.13;100.00
73516;BME280;61763;51.416;5.442;2023-10-08T08:06:15;102384.84;;;16.37;100.00
73516;BME280;61763;51.416;5.442;2023-10-08T08:08:41;102388.59;;;16.35;100.00
73516;BME280;61763;51.416;5.442;2023-10-08T08:11:08;102384.38;;;16.64;100.00
73516;BME280;61763;51.416;5.442;2023-10-08T08:13:43;102396.25;;;16.80;100.00
73516;BME280;61763;51.416;5.442;2023-10-08T08:16:13;102390.44;;;16.88;100.00
73516;BME280;61763;51.416;5.442;2023-10-08T08:21:12;102412.00;;;17.61;100.00
73516;BME280;61763;51.416;5.442;2023-10-08T08:23:46;102411.81;;;17.64;100.00
73516;BME280;61763;51.416;5.442;2023-10-08T08:26:23;102425.66;;;17.95;100.00
73516;BME280;61763;51.416;5.442;2023-10-08T08:29:02;102430.03;;;17.97;100.00
73516;BME280;61763;51.416;5.442;2023-10-08T08:31:28;102421.25;;;18.08;100.00
73516;BME280;61763;51.416;5.442;2023-10-08T08:33:57;102431.28;;;18.24;100.00
73516;BME280;61763;51.416;5.442;2023-10-08T08:36:29;102432.22;;;18.23;100.00
73516;BME280;61763;51.416;5.442;2023-10-08T08:38:55;102434.38;;;18.33;100.00
73516;BME280;61763;51.416;5.442;2023-10-08T08:41:21;102433.31;;;18.20;100.00
73516;BME280;61763;51.416;5.442;2023-10-08T08:43:51;102443.53;;;18.16;100.00
73516;BME280;61763;51.416;5.442;2023-10-08T08:46:34;102443.03;;;18.26;100.00
73516;BME280;61763;51.416;5.442;2023-10-08T08:49:07;102448.31;;;18.29;100.00
73516;BME280;61763;51.416;5.442;2023-10-08T08:51:35;102447.06;;;18.34;100.00
73516;BME280;61763;51.416;5.442;2023-10-08T08:54:02;102455.97;;;18.38;100.00
73516;BME280;61763;51.416;5.442;2023-10-08T08:56:36;102460.09;;;18.45;100.00
73516;BME280;61763;51.416;5.442;2023-10-08T08:59:04;102442.38;;;18.52;100.00
73516;BME280;61763;51.416;5.442;2023-10-08T09:01:30;102452.19;;;18.25;100.00
73516;BME280;61763;51.416;5.442;2023-10-08T09:04:01;102455.97;;;18.38;100.00
73516;BME280;61763;51.416;5.442;2023-10-08T09:06:29;102448.97;;;18.64;100.00
73516;BME280;61763;51.416;5.442;2023-10-08T09:08:54;102452.47;;;18.82;100.00
73516;BME280;61763;51.416;5.442;2023-10-08T09:11:39;102458.22;;;18.78;100.00
73516;BME280;61763;51.416;5.442;2023-10-08T09:14:07;102455.28;;;18.81;100.00
73516;BME280;61763;51.416;5.442;2023-10-08T09:16:36;102453.88;;;18.89;100.00
73516;BME280;61763;51.416;5.442;2023-10-08T09:19:02;102456.41;;;19.08;100.00
73516;BME280;61763;51.416;5.442;2023-10-08T09:21:27;102461.16;;;19.05;100.00
73516;BME280;61763;51.416;5.442;2023-10-08T09:23:53;102457.88;;;19.29;100.00
73516;BME280;61763;51.416;5.442;2023-10-08T09:26:25;102457.34;;;19.38;100.00
73516;BME280;61763;51.416;5.442;2023-10-08T09:28:54;102463.09;;;19.48;100.00
73516;BME280;61763;51.416;5.442;2023-10-08T09:31:22;102456.56;;;19.50;100.00
73516;BME280;61763;51.416;5.442;2023-10-08T09:33:55;102451.59;;;19.57;100.00
73516;BME280;61763;51.416;5.442;2023-10-08T09:36:22;102459.19;;;19.52;100.00
73516;BME280;61763;51.416;5.442;2023-10-08T09:38:59;102462.25;;;19.61;100.00
73516;BME280;61763;51.416;5.442;2023-10-08T09:41:26;102460.88;;;19.69;100.00
73516;BME280;61763;51.416;5.442;2023-10-08T09:43:53;102471.22;;;19.64;100.00
73516;BME280;61763;51.416;5.442;2023-10-08T09:46:23;102469.47;;;19.77;100.00
73516;BME280;61763;51.416;5.442;2023-10-08T09:48:52;102464.97;;;19.61;100.00
73516;BME280;61763;51.416;5.442;2023-10-08T09:51:20;102465.00;;;19.76;100.00
73516;BME280;61763;51.416;5.442;2023-10-08T09:54:42;102459.00;;;19.69;100.00
73516;BME280;61763;51.416;5.442;2023-10-08T09:56:41;102447.75;;;19.74;100.00
73516;BME280;61763;51.416;5.442;2023-10-08T09:59:09;102459.53;;;19.76;100.00
73516;BME280;61763;51.416;5.442;2023-10-08T10:01:38;102453.38;;;19.87;100.00
73516;BME280;61763;51.416;5.442;2023-10-08T10:04:22;102462.75;;;19.83;100.00
73516;BME280;61763;51.416;5.442;2023-10-08T10:06:49;102452.97;;;19.93;100.00
73516;BME280;61763;51.416;5.442;2023-10-08T10:09:23;102449.44;;;20.05;100.00
73516;BME280;61763;51.416;5.442;2023-10-08T10:11:50;102446.88;;;20.02;100.00
73516;BME280;61763;51.416;5.442;2023-10-08T10:14:16;102434.94;;;20.18;100.00
73516;BME280;61763;51.416;5.442;2023-10-08T10:16:43;102428.00;;;19.98;100.00
73516;BME280;61763;51.416;5.442;2023-10-08T10:19:20;102421.00;;;20.35;100.00
73516;BME280;61763;51.416;5.442;2023-10-08T10:21:46;102419.84;;;20.52;100.00
73516;BME280;61763;51.416;5.442;2023-10-08T10:24:23;102419.88;;;20.65;100.00
73516;BME280;61763;51.416;5.442;2023-10-08T10:27:09;102433.69;;;20.09;100.00
73516;BME280;61763;51.416;5.442;2023-10-08T10:29:35;102435.91;;;20.17;100.00
73516;BME280;61763;51.416;5.442;2023-10-08T10:32:01;102448.56;;;20.46;100.00
73516;BME280;61763;51.416;5.442;2023-10-08T10:34:27;102446.22;;;20.95;100.00
73516;BME280;61763;51.416;5.442;2023-10-08T10:36:58;102446.78;;;21.00;100.00
73516;BME280;61763;51.416;5.442;2023-10-08T10:39:25;102450.31;;;21.02;100.00
73516;BME280;61763;51.416;5.442;2023-10-08T10:42:00;102440.78;;;21.21;100.00
73516;BME280;61763;51.416;5.442;2023-10-08T10:44:32;102439.25;;;21.16;100.00
73516;BME280;61763;51.416;5.442;2023-10-08T10:47:02;102432.47;;;21.35;100.00
73516;BME280;61763;51.416;5.442;2023-10-08T10:49:43;102439.13;;;21.18;100.00
73516;BME280;61763;51.416;5.442;2023-10-08T10:52:26;102441.28;;;20.87;100.00
73516;BME280;61763;51.416;5.442;2023-10-08T10:55:10;102445.66;;;20.90;100.00
73516;BME280;61763;51.416;5.442;2023-10-08T10:57:40;102439.72;;;21.23;100.00
73516;BME280;61763;51.416;5.442;2023-10-08T11:00:07;102443.22;;;21.38;100.00
73516;BME280;61763;51.416;5.442;2023-10-08T11:02:51;102438.69;;;21.24;100.00
73516;BME280;61763;51.416;5.442;2023-10-08T11:05:22;102435.41;;;21.19;100.00
73516;BME280;61763;51.416;5.442;2023-10-08T11:07:55;102437.72;;;20.72;100.00
73516;BME280;61763;51.416;5.442;2023-10-08T11:10:26;102434.53;;;20.09;100.00
73516;BME280;61763;51.416;5.442;2023-10-08T11:12:54;102435.47;;;20.37;100.00
73516;BME280;61763;51.416;5.442;2023-10-08T11:15:19;102438.50;;;20.33;100.00
73516;BME280;61763;51.416;5.442;2023-10-08T11:17:49;102434.28;;;20.41;100.00
73516;BME280;61763;51.416;5.442;2023-10-08T11:20:28;102433.06;;;20.60;100.00
73516;BME280;61763;51.416;5.442;2023-10-08T11:22:54;102431.38;;;20.72;100.00
73516;BME280;61763;51.416;5.442;2023-10-08T11:25:23;102434.44;;;20.80;100.00
73516;BME280;61763;51.416;5.442;2023-10-08T11:27:53;102438.91;;;20.68;100.00
73516;BME280;61763;51.416;5.442;2023-10-08T11:30:27;102446.59;;;20.48;100.00
73516;BME280;61763;51.416;5.442;2023-10-08T11:32:57;102440.53;;;20.43;100.00
73516;BME280;61763;51.416;5.442;2023-10-08T11:35:24;102435.78;;;20.33;100.00
73516;BME280;61763;51.416;5.442;2023-10-08T11:37:52;102430.88;;;20.38;100.00
73516;BME280;61763;51.416;5.442;2023-10-08T11:40:24;102436.03;;;20.42;100.00
73516;BME280;61763;51.416;5.442;2023-10-08T11:43:13;102427.34;;;20.36;100.00
73516;BME280;61763;51.416;5.442;2023-10-08T11:45:42;102430.50;;;20.29;100.00
73516;BME280;61763;51.416;5.442;2023-10-08T11:48:14;102431.22;;;20.19;100.00
73516;BME280;61763;51.416;5.442;2023-10-08T11:50:42;102433.03;;;20.33;100.00
73516;BME280;61763;51.416;5.442;2023-10-08T11:53:09;102428.97;;;20.53;100.00
73516;BME280;61763;51.416;5.442;2023-10-08T11:55:37;102432.94;;;20.34;100.00
73516;BME280;61763;51.416;5.442;2023-10-08T11:58:07;102426.56;;;20.88;100.00
73516;BME280;61763;51.416;5.442;2023-10-08T12:00:37;102426.63;;;20.74;100.00
73516;BME280;61763;51.416;5.442;2023-10-08T12:03:09;102416.03;;;20.82;100.00
73516;BME280;61763;51.416;5.442;2023-10-08T12:05:36;102414.41;;;20.92;100.00
73516;BME280;61763;51.416;5.442;2023-10-08T12:08:04;102401.94;;;20.19;100.00
73516;BME280;61763;51.416;5.442;2023-10-08T12:10:33;102412.25;;;20.01;100.00
73516;BME280;61763;51.416;5.442;2023-10-08T12:13:00;102406.22;;;20.51;100.00
73516;BME280;61763;51.416;5.442;2023-10-08T12:15:25;102396.72;;;20.29;100.00
73516;BME280;61763;51.416;5.442;2023-10-08T12:18:04;102395.25;;;20.51;100.00
73516;BME280;61763;51.416;5.442;2023-10-08T12:20:41;102392.75;;;20.20;100.00
73516;BME280;61763;51.416;5.442;2023-10-08T12:23:11;102393.34;;;20.11;100.00
73516;BME280;61763;51.416;5.442;2023-10-08T12:25:38;102395.22;;;19.96;100.00
73516;BME280;61763;51.416;5.442;2023-10-08T12:28:05;102391.91;;;20.05;100.00
73516;BME280;61763;51.416;5.442;2023-10-08T12:30:31;102394.34;;;19.95;100.00
73516;BME280;61763;51.416;5.442;2023-10-08T12:32:58;102399.44;;;20.02;100.00
73516;BME280;61763;51.416;5.442;2023-10-08T12:35:24;102393.28;;;19.69;100.00
73516;BME280;61763;51.416;5.442;2023-10-08T12:37:52;102388.50;;;19.58;100.00
73516;BME280;61763;51.416;5.442;2023-10-08T12:40:19;102388.41;;;19.31;100.00
73516;BME280;61763;51.416;5.442;2023-10-08T12:42:53;102390.66;;;19.82;100.00
73516;BME280;61763;51.416;5.442;2023-10-08T12:45:20;102394.78;;;19.89;100.00
73516;BME280;61763;51.416;5.442;2023-10-08T12:47:50;102386.81;;;19.99;100.00
73516;BME280;61763;51.416;5.442;2023-10-08T12:50:19;102392.22;;;19.86;100.00
73516;BME280;61763;51.416;5.442;2023-10-08T12:53:05;102383.34;;;20.24;100.00
73516;BME280;61763;51.416;5.442;2023-10-08T12:55:31;102376.75;;;20.27;100.00
73516;BME280;61763;51.416;5.442;2023-10-08T12:57:56;102370.41;;;20.26;100.00
73516;BME280;61763;51.416;5.442;2023-10-08T13:00:32;102371.31;;;20.40;100.00
73516;BME280;61763;51.416;5.442;2023-10-08T13:02:57;102360.91;;;20.45;100.00
73516;BME280;61763;51.416;5.442;2023-10-08T13:05:23;102357.25;;;20.31;100.00
73516;BME280;61763;51.416;5.442;2023-10-08T13:07:56;102360.34;;;20.40;100.00
73516;BME280;61763;51.416;5.442;2023-10-08T13:10:25;102353.56;;;20.45;100.00
73516;BME280;61763;51.416;5.442;2023-10-08T13:12:51;102345.56;;;19.88;100.00
73516;BME280;61763;51.416;5.442;2023-10-08T13:15:17;102347.81;;;19.81;100.00
73516;BME280;61763;51.416;5.442;2023-10-08T13:17:43;102355.63;;;19.87;100.00
73516;BME280;61763;51.416;5.442;2023-10-08T13:20:13;102338.53;;;19.55;100.00